sensor_id;sensor_type;location;lat;lon;timestamp;temperature;humidity
3069;DHT22;1545;51.728;8.796;2022-08-23T00:00:03;21.40;68.60
3069;DHT22;1545;51.728;8.796;2022-08-23T00:02:30;21.30;68.70
3069;DHT22;1545;51.728;8.796;2022-08-23T00:04:55;21.30;68.60
3069;DHT22;1545;51.728;8.796;2022-08-23T00:07:21;21.30;68.70
3069;DHT22;1545;51.728;8.796;2022-08-23T00:09:47;21.30;68.70
3069;DHT22;1545;51.728;8.796;2022-08-23T00:12:16;21.30;68.70
3069;DHT22;1545;51.728;8.796;2022-08-23T00:14:46;21.30;68.70
3069;DHT22;1545;51.728;8.796;2022-08-23T00:17:12;21.30;68.60
3069;DHT22;1545;51.728;8.796;2022-08-23T00:19:39;21.30;68.70
3069;DHT22;1545;51.728;8.796;2022-08-23T00:22:06;21.30;68.80
3069;DHT22;1545;51.728;8.796;2022-08-23T00:24:33;21.20;68.90
3069;DHT22;1545;51.728;8.796;2022-08-23T00:27:02;21.20;68.90
3069;DHT22;1545;51.728;8.796;2022-08-23T00:32:03;21.20;69.30
3069;DHT22;1545;51.728;8.796;2022-08-23T00:34:28;21.10;69.50
3069;DHT22;1545;51.728;8.796;2022-08-23T00:36:54;21.10;70.60
3069;DHT22;1545;51.728;8.796;2022-08-23T00:39:20;20.90;71.80
3069;DHT22;1545;51.728;8.796;2022-08-23T00:41:48;20.70;73.20
3069;DHT22;1545;51.728;8.796;2022-08-23T00:44:19;20.50;74.30
3069;DHT22;1545;51.728;8.796;2022-08-23T00:47:05;20.30;75.40
3069;DHT22;1545;51.728;8.796;2022-08-23T00:49:55;20.10;76.30
3069;DHT22;1545;51.728;8.796;2022-08-23T00:53:27;20.00;76.90
3069;DHT22;1545;51.728;8.796;2022-08-23T00:55:21;19.90;77.10
3069;DHT22;1545;51.728;8.796;2022-08-23T00:57:46;19.80;77.20
3069;DHT22;1545;51.728;8.796;2022-08-23T01:00:13;19.90;76.70
3069;DHT22;1545;51.728;8.796;2022-08-23T01:02:50;19.90;76.10
3069;DHT22;1545;51.728;8.796;2022-08-23T01:05:16;20.10;75.20
3069;DHT22;1545;51.728;8.796;2022-08-23T01:07:50;20.20;74.60
3069;DHT22;1545;51.728;8.796;2022-08-23T01:10:37;20.20;74.40
3069;DHT22;1545;51.728;8.796;2022-08-23T01:13:19;20.30;74.10
3069;DHT22;1545;51.728;8.796;2022-08-23T01:15:57;20.40;73.60
3069;DHT22;1545;51.728;8.796;2022-08-23T01:18:26;20.40;73.30
3069;DHT22;1545;51.728;8.796;2022-08-23T01:21:00;20.40;73.10
3069;DHT22;1545;51.728;8.796;2022-08-23T01:23:33;20.50;72.90
3069;DHT22;1545;51.728;8.796;2022-08-23T01:26:03;20.50;72.80
3069;DHT22;1545;51.728;8.796;2022-08-23T01:28:30;20.50;72.90
3069;DHT22;1545;51.728;8.796;2022-08-23T01:30:56;20.50;72.70
3069;DHT22;1545;51.728;8.796;2022-08-23T01:33:22;20.50;72.90
3069;DHT22;1545;51.728;8.796;2022-08-23T01:35:50;20.40;72.90
3069;DHT22;1545;51.728;8.796;2022-08-23T01:38:18;20.30;73.20
3069;DHT22;1545;51.728;8.796;2022-08-23T01:40:44;20.30;73.40
3069;DHT22;1545;51.728;8.796;2022-08-23T01:43:09;20.20;73.60
3069;DHT22;1545;51.728;8.796;2022-08-23T01:45:38;20.20;73.60
3069;DHT22;1545;51.728;8.796;2022-08-23T01:48:04;20.10;73.90
3069;DHT22;1545;51.728;8.796;2022-08-23T01:50:30;20.10;73.90
3069;DHT22;1545;51.728;8.796;2022-08-23T01:52:56;20.10;74.00
3069;DHT22;1545;51.728;8.796;2022-08-23T01:55:22;20.10;73.90
3069;DHT22;1545;51.728;8.796;2022-08-23T01:57:51;20.20;73.70
3069;DHT22;1545;51.728;8.796;2022-08-23T02:00:19;20.20;73.70
3069;DHT22;1545;51.728;8.796;2022-08-23T02:02:45;20.20;73.70
3069;DHT22;1545;51.728;8.796;2022-08-23T02:05:11;20.20;73.70
3069;DHT22;1545;51.728;8.796;2022-08-23T02:07:39;20.20;73.50
3069;DHT22;1545;51.728;8.796;2022-08-23T02:10:06;20.20;73.60
3069;DHT22;1545;51.728;8.796;2022-08-23T02:12:32;20.20;73.70
3069;DHT22;1545;51.728;8.796;2022-08-23T02:14:58;20.20;73.60
3069;DHT22;1545;51.728;8.796;2022-08-23T02:17:24;20.20;73.70
3069;DHT22;1545;51.728;8.796;2022-08-23T02:19:49;20.10;73.80
3069;DHT22;1545;51.728;8.796;2022-08-23T02:22:15;20.10;73.90
3069;DHT22;1545;51.728;8.796;2022-08-23T02:24:44;20.10;73.90
3069;DHT22;1545;51.728;8.796;2022-08-23T02:27:11;20.10;73.90
3069;DHT22;1545;51.728;8.796;2022-08-23T02:29:39;20.10;73.90
3069;DHT22;1545;51.728;8.796;2022-08-23T02:32:04;20.10;74.10
3069;DHT22;1545;51.728;8.796;2022-08-23T02:34:30;20.10;74.00
3069;DHT22;1545;51.728;8.796;2022-08-23T02:36:56;20.00;74.00
3069;DHT22;1545;51.728;8.796;2022-08-23T02:39:22;20.00;74.00
3069;DHT22;1545;51.728;8.796;2022-08-23T02:41:48;20.00;74.00
3069;DHT22;1545;51.728;8.796;2022-08-23T02:44:14;20.00;74.30
3069;DHT22;1545;51.728;8.796;2022-08-23T02:46:41;20.00;74.40
3069;DHT22;1545;51.728;8.796;2022-08-23T02:49:07;20.00;74.60
3069;DHT22;1545;51.728;8.796;2022-08-23T02:51:33;19.90;74.70
3069;DHT22;1545;51.728;8.796;2022-08-23T02:53:59;19.90;74.80
3069;DHT22;1545;51.728;8.796;2022-08-23T02:56:25;19.80;74.80
3069;DHT22;1545;51.728;8.796;2022-08-23T02:58:51;19.80;74.90
3069;DHT22;1545;51.728;8.796;2022-08-23T03:01:20;19.80;74.80
3069;DHT22;1545;51.728;8.796;2022-08-23T03:03:46;19.80;74.80
3069;DHT22;1545;51.728;8.796;2022-08-23T03:06:13;19.80;74.80
3069;DHT22;1545;51.728;8.796;2022-08-23T03:08:39;19.90;74.80
3069;DHT22;1545;51.728;8.796;2022-08-23T03:11:11;19.90;74.80
3069;DHT22;1545;51.728;8.796;2022-08-23T03:13:38;19.80;74.90
3069;DHT22;1545;51.728;8.796;2022-08-23T03:16:04;19.80;75.10
3069;DHT22;1545;51.728;8.796;2022-08-23T03:18:30;19.70;75.30
3069;DHT22;1545;51.728;8.796;2022-08-23T03:20:56;19.70;75.40
3069;DHT22;1545;51.728;8.796;2022-08-23T03:23:21;19.70;75.40
3069;DHT22;1545;51.728;8.796;2022-08-23T03:25:47;19.60;75.60
3069;DHT22;1545;51.728;8.796;2022-08-23T03:28:12;19.60;75.60
3069;DHT22;1545;51.728;8.796;2022-08-23T03:30:38;19.50;75.80
3069;DHT22;1545;51.728;8.796;2022-08-23T03:33:03;19.50;75.80
3069;DHT22;1545;51.728;8.796;2022-08-23T03:35:29;19.40;76.00
3069;DHT22;1545;51.728;8.796;2022-08-23T03:37:56;19.40;76.00
3069;DHT22;1545;51.728;8.796;2022-08-23T03:40:21;19.40;76.10
3069;DHT22;1545;51.728;8.796;2022-08-23T03:42:48;19.40;75.90
3069;DHT22;1545;51.728;8.796;2022-08-23T03:45:13;19.40;75.90
3069;DHT22;1545;51.728;8.796;2022-08-23T03:47:39;19.30;76.10
3069;DHT22;1545;51.728;8.796;2022-08-23T03:50:05;19.30;76.10
3069;DHT22;1545;51.728;8.796;2022-08-23T03:52:31;19.30;76.20
3069;DHT22;1545;51.728;8.796;2022-08-23T03:54:56;19.30;76.30
3069;DHT22;1545;51.728;8.796;2022-08-23T03:57:22;19.30;76.30
3069;DHT22;1545;51.728;8.796;2022-08-23T03:59:48;19.20;76.40
3069;DHT22;1545;51.728;8.796;2022-08-23T04:02:14;19.20;76.50
3069;DHT22;1545;51.728;8.796;2022-08-23T04:04:40;19.20;76.40
3069;DHT22;1545;51.728;8.796;2022-08-23T04:07:06;19.20;76.30
3069;DHT22;1545;51.728;8.796;2022-08-23T04:09:34;19.20;76.40
3069;DHT22;1545;51.728;8.796;2022-08-23T04:12:02;19.20;76.30
3069;DHT22;1545;51.728;8.796;2022-08-23T04:14:28;19.20;76.40
3069;DHT22;1545;51.728;8.796;2022-08-23T04:16:54;19.20;76.30
3069;DHT22;1545;51.728;8.796;2022-08-23T04:19:19;19.20;76.20
3069;DHT22;1545;51.728;8.796;2022-08-23T04:21:47;19.20;76.30
3069;DHT22;1545;51.728;8.796;2022-08-23T04:24:15;19.20;76.30
3069;DHT22;1545;51.728;8.796;2022-08-23T04:26:40;19.10;76.30
3069;DHT22;1545;51.728;8.796;2022-08-23T04:29:06;19.20;76.20
3069;DHT22;1545;51.728;8.796;2022-08-23T04:31:32;19.20;76.10
3069;DHT22;1545;51.728;8.796;2022-08-23T04:33:59;19.20;76.00
3069;DHT22;1545;51.728;8.796;2022-08-23T04:36:25;19.20;76.00
3069;DHT22;1545;51.728;8.796;2022-08-23T04:38:50;19.20;75.90
3069;DHT22;1545;51.728;8.796;2022-08-23T04:41:16;19.30;75.90
3069;DHT22;1545;51.728;8.796;2022-08-23T04:44:01;19.30;75.90
3069;DHT22;1545;51.728;8.796;2022-08-23T04:46:26;19.40;75.60
3069;DHT22;1545;51.728;8.796;2022-08-23T04:48:52;19.40;75.40
3069;DHT22;1545;51.728;8.796;2022-08-23T04:51:18;19.50;75.20
3069;DHT22;1545;51.728;8.796;2022-08-23T04:53:44;19.50;75.10
3069;DHT22;1545;51.728;8.796;2022-08-23T04:56:10;19.60;75.00
3069;DHT22;1545;51.728;8.796;2022-08-23T04:58:37;19.60;74.90
3069;DHT22;1545;51.728;8.796;2022-08-23T05:01:05;19.60;74.90
3069;DHT22;1545;51.728;8.796;2022-08-23T05:03:32;19.70;74.80
3069;DHT22;1545;51.728;8.796;2022-08-23T05:05:58;19.60;74.90
3069;DHT22;1545;51.728;8.796;2022-08-23T05:08:25;19.60;75.00
3069;DHT22;1545;51.728;8.796;2022-08-23T05:10:51;19.50;75.30
3069;DHT22;1545;51.728;8.796;2022-08-23T05:13:16;19.40;75.60
3069;DHT22;1545;51.728;8.796;2022-08-23T05:15:42;19.40;75.70
3069;DHT22;1545;51.728;8.796;2022-08-23T05:18:09;19.40;75.80
3069;DHT22;1545;51.728;8.796;2022-08-23T05:20:34;19.40;75.90
3069;DHT22;1545;51.728;8.796;2022-08-23T05:23:00;19.40;75.80
3069;DHT22;1545;51.728;8.796;2022-08-23T05:25:26;19.40;75.70
3069;DHT22;1545;51.728;8.796;2022-08-23T05:28:12;19.50;75.50
3069;DHT22;1545;51.728;8.796;2022-08-23T05:30:38;19.50;75.60
3069;DHT22;1545;51.728;8.796;2022-08-23T05:33:03;19.60;75.30
3069;DHT22;1545;51.728;8.796;2022-08-23T05:35:30;19.60;75.40
3069;DHT22;1545;51.728;8.796;2022-08-23T05:37:56;19.60;75.20
3069;DHT22;1545;51.728;8.796;2022-08-23T05:40:27;19.70;75.30
3069;DHT22;1545;51.728;8.796;2022-08-23T05:42:53;19.70;75.30
3069;DHT22;1545;51.728;8.796;2022-08-23T05:45:19;19.70;75.10
3069;DHT22;1545;51.728;8.796;2022-08-23T05:47:44;19.70;75.00
3069;DHT22;1545;51.728;8.796;2022-08-23T05:50:11;19.80;75.20
3069;DHT22;1545;51.728;8.796;2022-08-23T05:52:37;19.90;75.00
3069;DHT22;1545;51.728;8.796;2022-08-23T05:55:06;19.90;75.10
3069;DHT22;1545;51.728;8.796;2022-08-23T05:57:36;19.90;75.20
3069;DHT22;1545;51.728;8.796;2022-08-23T06:00:06;19.90;75.10
3069;DHT22;1545;51.728;8.796;2022-08-23T06:02:37;20.00;75.00
3069;DHT22;1545;51.728;8.796;2022-08-23T06:05:03;20.00;74.60
3069;DHT22;1545;51.728;8.796;2022-08-23T06:07:33;20.10;74.70
3069;DHT22;1545;51.728;8.796;2022-08-23T06:09:59;20.10;74.60
3069;DHT22;1545;51.728;8.796;2022-08-23T06:12:25;20.20;74.50
3069;DHT22;1545;51.728;8.796;2022-08-23T06:14:51;20.20;74.20
3069;DHT22;1545;51.728;8.796;2022-08-23T06:17:16;20.30;74.40
3069;DHT22;1545;51.728;8.796;2022-08-23T06:19:42;20.40;74.20
3069;DHT22;1545;51.728;8.796;2022-08-23T06:22:07;20.50;73.90
3069;DHT22;1545;51.728;8.796;2022-08-23T06:24:33;20.50;73.90
3069;DHT22;1545;51.728;8.796;2022-08-23T06:26:59;20.60;73.60
3069;DHT22;1545;51.728;8.796;2022-08-23T06:29:26;20.60;73.90
3069;DHT22;1545;51.728;8.796;2022-08-23T06:31:54;20.70;73.80
3069;DHT22;1545;51.728;8.796;2022-08-23T06:36:57;20.90;73.10
3069;DHT22;1545;51.728;8.796;2022-08-23T06:39:24;21.00;72.80
3069;DHT22;1545;51.728;8.796;2022-08-23T06:41:51;21.10;72.70
3069;DHT22;1545;51.728;8.796;2022-08-23T06:44:17;21.30;72.10
3069;DHT22;1545;51.728;8.796;2022-08-23T06:46:44;21.50;71.70
3069;DHT22;1545;51.728;8.796;2022-08-23T06:49:12;21.70;71.00
3069;DHT22;1545;51.728;8.796;2022-08-23T06:51:40;22.00;70.10
3069;DHT22;1545;51.728;8.796;2022-08-23T06:54:09;22.30;69.20
3069;DHT22;1545;51.728;8.796;2022-08-23T06:56:36;22.80;67.80
3069;DHT22;1545;51.728;8.796;2022-08-23T06:59:03;23.30;66.30
3069;DHT22;1545;51.728;8.796;2022-08-23T07:01:31;23.80;65.00
3069;DHT22;1545;51.728;8.796;2022-08-23T07:03:58;24.10;64.10
3069;DHT22;1545;51.728;8.796;2022-08-23T07:06:26;24.50;63.00
3069;DHT22;1545;51.728;8.796;2022-08-23T07:08:51;25.10;61.40
3069;DHT22;1545;51.728;8.796;2022-08-23T07:11:18;25.20;60.00
3069;DHT22;1545;51.728;8.796;2022-08-23T07:13:44;25.50;60.10
3069;DHT22;1545;51.728;8.796;2022-08-23T07:16:12;26.40;58.30
3069;DHT22;1545;51.728;8.796;2022-08-23T07:18:38;26.80;55.90
3069;DHT22;1545;51.728;8.796;2022-08-23T07:21:05;26.60;57.00
3069;DHT22;1545;51.728;8.796;2022-08-23T07:23:32;26.70;56.70
3069;DHT22;1545;51.728;8.796;2022-08-23T07:25:59;26.80;56.40
3069;DHT22;1545;51.728;8.796;2022-08-23T07:28:26;27.20;56.60
3069;DHT22;1545;51.728;8.796;2022-08-23T07:30:52;27.30;56.40
3069;DHT22;1545;51.728;8.796;2022-08-23T07:33:19;28.00;55.00
3069;DHT22;1545;51.728;8.796;2022-08-23T07:35:47;28.70;53.00
3069;DHT22;1545;51.728;8.796;2022-08-23T07:38:14;29.10;52.00
3069;DHT22;1545;51.728;8.796;2022-08-23T07:40:40;28.80;51.40
3069;DHT22;1545;51.728;8.796;2022-08-23T07:43:05;28.40;52.20
3069;DHT22;1545;51.728;8.796;2022-08-23T07:45:31;28.60;51.40
3069;DHT22;1545;51.728;8.796;2022-08-23T07:47:59;28.80;49.70
3069;DHT22;1545;51.728;8.796;2022-08-23T07:50:25;29.00;49.60
3069;DHT22;1545;51.728;8.796;2022-08-23T07:52:51;29.00;49.60
3069;DHT22;1545;51.728;8.796;2022-08-23T07:55:16;29.40;49.50
3069;DHT22;1545;51.728;8.796;2022-08-23T07:57:42;29.20;48.70
3069;DHT22;1545;51.728;8.796;2022-08-23T08:00:08;28.30;50.20
3069;DHT22;1545;51.728;8.796;2022-08-23T08:02:49;27.10;52.90
3069;DHT22;1545;51.728;8.796;2022-08-23T08:05:46;27.30;52.90
3069;DHT22;1545;51.728;8.796;2022-08-23T08:08:25;28.20;52.50
3069;DHT22;1545;51.728;8.796;2022-08-23T08:11:19;29.30;49.80
3069;DHT22;1545;51.728;8.796;2022-08-23T08:14:00;29.70;48.70
3069;DHT22;1545;51.728;8.796;2022-08-23T08:19:50;31.00;46.50
3069;DHT22;1545;51.728;8.796;2022-08-23T08:22:38;31.40;45.90
3069;DHT22;1545;51.728;8.796;2022-08-23T08:25:08;31.20;45.70
3069;DHT22;1545;51.728;8.796;2022-08-23T08:27:36;30.70;46.10
3069;DHT22;1545;51.728;8.796;2022-08-23T08:30:03;30.10;47.00
3069;DHT22;1545;51.728;8.796;2022-08-23T08:32:47;29.60;47.80
3069;DHT22;1545;51.728;8.796;2022-08-23T08:35:25;29.70;48.00
3069;DHT22;1545;51.728;8.796;2022-08-23T08:37:55;30.20;48.00
3069;DHT22;1545;51.728;8.796;2022-08-23T08:40:30;31.30;46.00
3069;DHT22;1545;51.728;8.796;2022-08-23T08:43:13;31.70;45.30
3069;DHT22;1545;51.728;8.796;2022-08-23T08:45:57;31.80;44.90
3069;DHT22;1545;51.728;8.796;2022-08-23T08:48:25;30.80;46.20
3069;DHT22;1545;51.728;8.796;2022-08-23T08:50:58;30.30;46.90
3069;DHT22;1545;51.728;8.796;2022-08-23T08:53:33;30.00;47.70
3069;DHT22;1545;51.728;8.796;2022-08-23T08:56:10;30.30;47.70
3069;DHT22;1545;51.728;8.796;2022-08-23T08:59:19;30.80;46.50
3069;DHT22;1545;51.728;8.796;2022-08-23T09:01:48;30.70;46.40
3069;DHT22;1545;51.728;8.796;2022-08-23T09:04:34;30.60;47.20
3069;DHT22;1545;51.728;8.796;2022-08-23T09:16:25;30.40;47.70
3069;DHT22;1545;51.728;8.796;2022-08-23T09:18:55;31.30;46.10
3069;DHT22;1545;51.728;8.796;2022-08-23T09:21:22;31.80;45.60
3069;DHT22;1545;51.728;8.796;2022-08-23T09:23:51;31.20;45.70
3069;DHT22;1545;51.728;8.796;2022-08-23T09:26:29;31.00;47.00
3069;DHT22;1545;51.728;8.796;2022-08-23T09:29:17;31.00;46.00
3069;DHT22;1545;51.728;8.796;2022-08-23T09:31:58;30.20;47.10
3069;DHT22;1545;51.728;8.796;2022-08-23T09:37:10;29.30;48.90
3069;DHT22;1545;51.728;8.796;2022-08-23T09:39:43;30.00;48.50
3069;DHT22;1545;51.728;8.796;2022-08-23T09:42:31;30.70;46.70
3069;DHT22;1545;51.728;8.796;2022-08-23T09:44:57;30.20;46.90
3069;DHT22;1545;51.728;8.796;2022-08-23T09:47:31;30.00;47.50
3069;DHT22;1545;51.728;8.796;2022-08-23T09:50:09;29.70;47.90
3069;DHT22;1545;51.728;8.796;2022-08-23T09:52:40;28.80;49.90
3069;DHT22;1545;51.728;8.796;2022-08-23T09:55:26;28.50;50.20
3069;DHT22;1545;51.728;8.796;2022-08-23T09:57:53;28.80;49.50
3069;DHT22;1545;51.728;8.796;2022-08-23T10:00:26;28.30;50.50
3069;DHT22;1545;51.728;8.796;2022-08-23T10:02:55;27.90;51.50
3069;DHT22;1545;51.728;8.796;2022-08-23T10:05:41;27.90;51.90
3069;DHT22;1545;51.728;8.796;2022-08-23T10:08:34;27.70;52.30
3069;DHT22;1545;51.728;8.796;2022-08-23T10:11:15;27.90;51.50
3069;DHT22;1545;51.728;8.796;2022-08-23T10:13:42;28.10;51.30
3069;DHT22;1545;51.728;8.796;2022-08-23T10:21:53;28.40;49.50
3069;DHT22;1545;51.728;8.796;2022-08-23T10:27:05;28.50;49.80
3069;DHT22;1545;51.728;8.796;2022-08-23T10:30:10;28.60;49.60
3069;DHT22;1545;51.728;8.796;2022-08-23T10:33:00;28.70;49.80
3069;DHT22;1545;51.728;8.796;2022-08-23T10:35:38;28.60;50.10
3069;DHT22;1545;51.728;8.796;2022-08-23T10:38:26;28.50;49.20
3069;DHT22;1545;51.728;8.796;2022-08-23T10:44:32;28.60;50.10
3069;DHT22;1545;51.728;8.796;2022-08-23T10:47:28;28.90;48.90
3069;DHT22;1545;51.728;8.796;2022-08-23T10:50:02;28.90;48.50
3069;DHT22;1545;51.728;8.796;2022-08-23T10:53:03;28.90;48.50
3069;DHT22;1545;51.728;8.796;2022-08-23T10:55:38;29.10;48.40
3069;DHT22;1545;51.728;8.796;2022-08-23T10:58:31;29.20;47.80
3069;DHT22;1545;51.728;8.796;2022-08-23T11:00:59;29.10;48.10
3069;DHT22;1545;51.728;8.796;2022-08-23T11:03:36;29.20;47.90
3069;DHT22;1545;51.728;8.796;2022-08-23T11:09:03;28.70;47.60
3069;DHT22;1545;51.728;8.796;2022-08-23T11:17:22;28.90;48.30
3069;DHT22;1545;51.728;8.796;2022-08-23T11:20:00;29.20;47.60
3069;DHT22;1545;51.728;8.796;2022-08-23T11:27:44;29.30;47.60
3069;DHT22;1545;51.728;8.796;2022-08-23T11:38:12;29.80;46.90
3069;DHT22;1545;51.728;8.796;2022-08-23T11:40:56;30.00;46.80
3069;DHT22;1545;51.728;8.796;2022-08-23T11:47:02;30.10;45.50
3069;DHT22;1545;51.728;8.796;2022-08-23T12:05:18;30.30;45.80
3069;DHT22;1545;51.728;8.796;2022-08-23T12:18:33;30.40;44.30
3069;DHT22;1545;51.728;8.796;2022-08-23T12:21:05;30.20;44.60
3069;DHT22;1545;51.728;8.796;2022-08-23T12:23:45;30.40;44.80
3069;DHT22;1545;51.728;8.796;2022-08-23T12:26:52;30.60;45.00
3069;DHT22;1545;51.728;8.796;2022-08-23T12:29:58;30.80;45.00
3069;DHT22;1545;51.728;8.796;2022-08-23T12:32:43;30.90;44.20
3069;DHT22;1545;51.728;8.796;2022-08-23T12:38:06;31.00;43.40
3069;DHT22;1545;51.728;8.796;2022-08-23T12:40:43;31.00;43.10
3069;DHT22;1545;51.728;8.796;2022-08-23T12:43:16;30.70;44.10
3069;DHT22;1545;51.728;8.796;2022-08-23T12:45:46;30.70;44.40
3069;DHT22;1545;51.728;8.796;2022-08-23T12:48:15;30.80;43.70
3069;DHT22;1545;51.728;8.796;2022-08-23T12:50:44;31.00;43.20
3069;DHT22;1545;51.728;8.796;2022-08-23T12:53:12;31.10;43.80
3069;DHT22;1545;51.728;8.796;2022-08-23T12:55:50;31.20;43.60
3069;DHT22;1545;51.728;8.796;2022-08-23T12:58:26;31.20;42.80
3069;DHT22;1545;51.728;8.796;2022-08-23T13:00:54;31.40;43.30
3069;DHT22;1545;51.728;8.796;2022-08-23T13:06:10;30.90;42.80
3069;DHT22;1545;51.728;8.796;2022-08-23T13:11:07;31.20;43.30
3069;DHT22;1545;51.728;8.796;2022-08-23T13:13:33;31.40;43.00
3069;DHT22;1545;51.728;8.796;2022-08-23T13:16:01;31.40;42.70
3069;DHT22;1545;51.728;8.796;2022-08-23T13:18:31;31.20;42.90
3069;DHT22;1545;51.728;8.796;2022-08-23T13:21:27;30.90;43.10
3069;DHT22;1545;51.728;8.796;2022-08-23T13:23:58;31.00;43.10
3069;DHT22;1545;51.728;8.796;2022-08-23T13:26:35;30.70;43.00
3069;DHT22;1545;51.728;8.796;2022-08-23T13:29:20;30.70;43.60
3069;DHT22;1545;51.728;8.796;2022-08-23T13:32:02;30.90;43.40
3069;DHT22;1545;51.728;8.796;2022-08-23T13:37:03;31.30;42.90
3069;DHT22;1545;51.728;8.796;2022-08-23T13:39:30;31.70;42.80
3069;DHT22;1545;51.728;8.796;2022-08-23T13:41:56;31.90;41.80
3069;DHT22;1545;51.728;8.796;2022-08-23T13:44:22;32.00;41.80
3069;DHT22;1545;51.728;8.796;2022-08-23T13:46:49;32.00;41.50
3069;DHT22;1545;51.728;8.796;2022-08-23T13:49:21;32.00;42.00
3069;DHT22;1545;51.728;8.796;2022-08-23T13:54:23;31.70;41.00
3069;DHT22;1545;51.728;8.796;2022-08-23T13:57:31;31.60;41.60
3069;DHT22;1545;51.728;8.796;2022-08-23T13:59:45;31.60;42.30
3069;DHT22;1545;51.728;8.796;2022-08-23T14:02:13;31.60;42.90
3069;DHT22;1545;51.728;8.796;2022-08-23T14:04:40;31.70;41.80
3069;DHT22;1545;51.728;8.796;2022-08-23T14:07:06;31.50;42.10
3069;DHT22;1545;51.728;8.796;2022-08-23T14:09:33;31.50;42.60
3069;DHT22;1545;51.728;8.796;2022-08-23T14:12:02;31.30;41.90
3069;DHT22;1545;51.728;8.796;2022-08-23T14:14:30;31.00;42.30
3069;DHT22;1545;51.728;8.796;2022-08-23T14:16:57;30.90;42.20
3069;DHT22;1545;51.728;8.796;2022-08-23T14:19:22;30.90;42.10
3069;DHT22;1545;51.728;8.796;2022-08-23T14:21:49;31.00;42.80
3069;DHT22;1545;51.728;8.796;2022-08-23T14:24:15;31.30;42.10
3069;DHT22;1545;51.728;8.796;2022-08-23T14:26:40;31.50;41.80
3069;DHT22;1545;51.728;8.796;2022-08-23T14:29:06;31.50;42.10
3069;DHT22;1545;51.728;8.796;2022-08-23T14:31:31;31.50;42.20
3069;DHT22;1545;51.728;8.796;2022-08-23T14:33:57;31.70;42.10
3069;DHT22;1545;51.728;8.796;2022-08-23T14:36:22;31.70;41.60
3069;DHT22;1545;51.728;8.796;2022-08-23T14:38:48;31.50;42.20
3069;DHT22;1545;51.728;8.796;2022-08-23T14:41:19;31.30;42.50
3069;DHT22;1545;51.728;8.796;2022-08-23T14:43:47;31.10;42.30
3069;DHT22;1545;51.728;8.796;2022-08-23T14:46:14;30.80;42.60
3069;DHT22;1545;51.728;8.796;2022-08-23T14:48:39;30.90;42.70
3069;DHT22;1545;51.728;8.796;2022-08-23T14:51:11;30.90;43.00
3069;DHT22;1545;51.728;8.796;2022-08-23T14:53:40;31.20;42.50
3069;DHT22;1545;51.728;8.796;2022-08-23T14:56:05;31.20;42.20
3069;DHT22;1545;51.728;8.796;2022-08-23T14:58:31;31.30;42.10
3069;DHT22;1545;51.728;8.796;2022-08-23T15:00:59;31.60;41.60
3069;DHT22;1545;51.728;8.796;2022-08-23T15:03:26;31.70;41.60
3069;DHT22;1545;51.728;8.796;2022-08-23T15:05:51;31.90;42.30
3069;DHT22;1545;51.728;8.796;2022-08-23T15:08:18;31.60;42.20
3069;DHT22;1545;51.728;8.796;2022-08-23T15:10:44;31.40;42.10
3069;DHT22;1545;51.728;8.796;2022-08-23T15:13:09;31.40;42.00
3069;DHT22;1545;51.728;8.796;2022-08-23T15:15:35;31.50;42.20
3069;DHT22;1545;51.728;8.796;2022-08-23T15:18:03;31.80;42.20
3069;DHT22;1545;51.728;8.796;2022-08-23T15:20:33;31.90;42.20
3069;DHT22;1545;51.728;8.796;2022-08-23T15:23:00;31.80;42.50
3069;DHT22;1545;51.728;8.796;2022-08-23T15:25:28;31.50;42.70
3069;DHT22;1545;51.728;8.796;2022-08-23T15:27:54;30.80;43.10
3069;DHT22;1545;51.728;8.796;2022-08-23T15:30:21;30.40;43.40
3069;DHT22;1545;51.728;8.796;2022-08-23T15:32:47;30.30;43.90
3069;DHT22;1545;51.728;8.796;2022-08-23T15:35:12;30.40;43.40
3069;DHT22;1545;51.728;8.796;2022-08-23T15:37:38;30.30;43.80
3069;DHT22;1545;51.728;8.796;2022-08-23T15:40:04;30.50;43.80
3069;DHT22;1545;51.728;8.796;2022-08-23T15:42:30;30.50;44.00
3069;DHT22;1545;51.728;8.796;2022-08-23T15:44:56;30.60;43.50
3069;DHT22;1545;51.728;8.796;2022-08-23T15:47:27;30.50;43.80
3069;DHT22;1545;51.728;8.796;2022-08-23T15:49:53;30.50;44.00
3069;DHT22;1545;51.728;8.796;2022-08-23T15:52:20;30.40;43.40
3069;DHT22;1545;51.728;8.796;2022-08-23T15:54:46;30.30;43.90
3069;DHT22;1545;51.728;8.796;2022-08-23T15:57:15;30.40;43.70
3069;DHT22;1545;51.728;8.796;2022-08-23T15:59:41;30.50;44.10
3069;DHT22;1545;51.728;8.796;2022-08-23T16:02:06;30.50;44.10
3069;DHT22;1545;51.728;8.796;2022-08-23T16:04:32;30.60;44.10
3069;DHT22;1545;51.728;8.796;2022-08-23T16:06:58;30.60;43.60
3069;DHT22;1545;51.728;8.796;2022-08-23T16:09:24;30.40;43.60
3069;DHT22;1545;51.728;8.796;2022-08-23T16:11:51;30.50;43.80
3069;DHT22;1545;51.728;8.796;2022-08-23T16:14:16;30.60;43.80
3069;DHT22;1545;51.728;8.796;2022-08-23T16:16:42;30.60;44.10
3069;DHT22;1545;51.728;8.796;2022-08-23T16:19:10;30.50;43.80
3069;DHT22;1545;51.728;8.796;2022-08-23T16:21:36;30.40;44.30
3069;DHT22;1545;51.728;8.796;2022-08-23T16:24:02;30.40;44.10
3069;DHT22;1545;51.728;8.796;2022-08-23T16:26:30;30.30;44.20
3069;DHT22;1545;51.728;8.796;2022-08-23T16:28:57;30.10;44.20
3069;DHT22;1545;51.728;8.796;2022-08-23T16:31:24;29.90;44.50
3069;DHT22;1545;51.728;8.796;2022-08-23T16:33:55;29.80;44.60
3069;DHT22;1545;51.728;8.796;2022-08-23T16:36:21;29.90;44.70
3069;DHT22;1545;51.728;8.796;2022-08-23T16:38:46;30.10;44.70
3069;DHT22;1545;51.728;8.796;2022-08-23T16:41:12;30.20;44.10
3069;DHT22;1545;51.728;8.796;2022-08-23T16:43:38;30.20;44.10
3069;DHT22;1545;51.728;8.796;2022-08-23T16:46:04;30.30;44.60
3069;DHT22;1545;51.728;8.796;2022-08-23T16:48:30;30.60;44.50
3069;DHT22;1545;51.728;8.796;2022-08-23T16:50:55;30.70;44.20
3069;DHT22;1545;51.728;8.796;2022-08-23T16:53:21;30.70;44.10
3069;DHT22;1545;51.728;8.796;2022-08-23T16:55:47;30.50;44.20
3069;DHT22;1545;51.728;8.796;2022-08-23T16:58:13;30.20;44.70
3069;DHT22;1545;51.728;8.796;2022-08-23T17:00:38;30.20;44.80
3069;DHT22;1545;51.728;8.796;2022-08-23T17:03:05;30.00;44.90
3069;DHT22;1545;51.728;8.796;2022-08-23T17:05:31;29.80;44.80
3069;DHT22;1545;51.728;8.796;2022-08-23T17:07:56;29.60;45.20
3069;DHT22;1545;51.728;8.796;2022-08-23T17:10:23;29.40;45.70
3069;DHT22;1545;51.728;8.796;2022-08-23T17:12:51;29.20;46.00
3069;DHT22;1545;51.728;8.796;2022-08-23T17:15:23;29.10;46.40
3069;DHT22;1545;51.728;8.796;2022-08-23T17:17:49;29.00;46.70
3069;DHT22;1545;51.728;8.796;2022-08-23T17:20:17;29.00;46.80
3069;DHT22;1545;51.728;8.796;2022-08-23T17:22:42;28.90;47.20
3069;DHT22;1545;51.728;8.796;2022-08-23T17:25:09;28.90;47.30
3069;DHT22;1545;51.728;8.796;2022-08-23T17:27:36;28.90;47.60
3069;DHT22;1545;51.728;8.796;2022-08-23T17:30:04;28.90;47.60
3069;DHT22;1545;51.728;8.796;2022-08-23T17:32:29;28.90;47.80
3069;DHT22;1545;51.728;8.796;2022-08-23T17:34:55;28.90;47.40
3069;DHT22;1545;51.728;8.796;2022-08-23T17:37:21;28.90;47.80
3069;DHT22;1545;51.728;8.796;2022-08-23T17:39:48;29.00;48.10
3069;DHT22;1545;51.728;8.796;2022-08-23T17:42:14;29.00;48.10
3069;DHT22;1545;51.728;8.796;2022-08-23T17:44:39;28.90;47.40
3069;DHT22;1545;51.728;8.796;2022-08-23T17:47:08;28.90;48.30
3069;DHT22;1545;51.728;8.796;2022-08-23T17:49:35;28.90;48.40
3069;DHT22;1545;51.728;8.796;2022-08-23T17:52:01;28.80;48.60
3069;DHT22;1545;51.728;8.796;2022-08-23T17:54:27;28.60;48.50